createdAt,value
2023-05-22T00:01:08.924Z,16.76
2023-05-22T00:03:37.069Z,16.74
2023-05-22T00:06:04.360Z,16.77
2023-05-22T00:08:31.328Z,16.75
2023-05-22T00:10:58.080Z,16.70
2023-05-22T00:13:25.031Z,16.72
2023-05-22T00:15:51.752Z,16.69
2023-05-22T00:18:18.420Z,16.67
2023-05-22T00:20:46.627Z,16.61
2023-05-22T00:23:15.735Z,16.58
2023-05-22T00:25:42.530Z,16.52
2023-05-22T00:28:09.407Z,16.52
2023-05-22T00:30:37.329Z,16.50
2023-05-22T00:33:04.365Z,16.46
2023-05-22T00:35:31.540Z,16.49
2023-05-22T00:37:58.310Z,16.46
2023-05-22T00:40:24.980Z,16.40
2023-05-22T00:42:51.637Z,16.41
2023-05-22T00:45:18.262Z,16.37
2023-05-22T00:47:45.154Z,16.32
2023-05-22T00:50:12.813Z,16.29
2023-05-22T00:52:44.026Z,16.31
2023-05-22T00:55:12.723Z,16.27
2023-05-22T00:57:42.930Z,16.25
2023-05-22T01:00:13.607Z,16.24
2023-05-22T01:02:43.842Z,16.22
2023-05-22T01:05:19.314Z,16.21
2023-05-22T01:07:46.645Z,16.20
2023-05-22T01:10:13.375Z,16.15
2023-05-22T01:12:52.261Z,16.17
2023-05-22T01:15:29.562Z,16.14
2023-05-22T01:18:25.235Z,16.15
2023-05-22T01:21:06.121Z,16.12
2023-05-22T01:23:49.822Z,16.13
2023-05-22T01:26:31.086Z,16.08
2023-05-22T01:29:28.748Z,16.10
2023-05-22T01:31:58.192Z,16.06
2023-05-22T01:34:26.880Z,16.05
2023-05-22T01:36:55.694Z,16.00
2023-05-22T01:39:25.665Z,16.05
2023-05-22T01:41:52.860Z,16.01
2023-05-22T01:44:19.805Z,15.99
2023-05-22T01:46:46.840Z,15.98
2023-05-22T01:49:13.502Z,15.99
2023-05-22T01:51:53.529Z,15.99
2023-05-22T01:54:42.488Z,15.92
2023-05-22T01:57:19.284Z,15.90
2023-05-22T01:59:50.003Z,15.87
2023-05-22T02:02:19.661Z,15.89
2023-05-22T02:04:52.095Z,15.84
2023-05-22T02:07:22.433Z,15.82
2023-05-22T02:09:51.687Z,15.83
2023-05-22T02:12:21.681Z,15.78
2023-05-22T02:14:49.364Z,15.74
2023-05-22T02:17:18.529Z,15.75
2023-05-22T02:19:45.467Z,15.74
2023-05-22T02:22:15.441Z,15.73
2023-05-22T02:24:44.584Z,15.68
2023-05-22T02:27:13.012Z,15.67
2023-05-22T02:29:40.108Z,15.64
2023-05-22T02:32:07.058Z,15.64
2023-05-22T02:34:33.976Z,15.62
2023-05-22T02:37:03.985Z,15.62
2023-05-22T02:39:31.099Z,15.61
2023-05-22T02:41:57.839Z,15.60
2023-05-22T02:44:24.719Z,15.53
2023-05-22T02:46:52.850Z,15.49
2023-05-22T02:49:19.870Z,15.51
2023-05-22T02:51:48.068Z,15.44
2023-05-22T02:54:16.275Z,15.42
2023-05-22T02:56:43.752Z,15.39
2023-05-22T02:59:10.551Z,15.39
2023-05-22T03:01:39.048Z,15.34
2023-05-22T03:04:06.893Z,15.31
2023-05-22T03:06:35.740Z,15.29
2023-05-22T03:09:04.448Z,15.28
2023-05-22T03:11:32.041Z,15.23
2023-05-22T03:13:58.796Z,15.19
2023-05-22T03:16:26.053Z,15.21
2023-05-22T03:19:11.281Z,15.20
2023-05-22T03:21:39.274Z,15.21
2023-05-22T03:24:06.795Z,15.19
2023-05-22T03:26:34.006Z,15.15
2023-05-22T03:29:00.823Z,15.19
2023-05-22T03:31:29.312Z,15.17
2023-05-22T03:33:56.089Z,15.13
2023-05-22T03:36:24.541Z,15.14
2023-05-22T03:38:51.969Z,15.10
2023-05-22T03:41:18.784Z,15.12
2023-05-22T03:43:46.978Z,15.08
2023-05-22T03:46:14.082Z,15.02
2023-05-22T03:48:40.740Z,15.04
2023-05-22T03:51:07.405Z,15.01
2023-05-22T03:53:34.125Z,15.04
2023-05-22T03:56:00.817Z,15.04
2023-05-22T03:58:27.657Z,15.04
2023-05-22T04:00:55.685Z,15.00
2023-05-22T04:03:22.876Z,14.99
2023-05-22T04:05:49.727Z,14.99
2023-05-22T04:08:16.637Z,15.01
2023-05-22T04:10:46.784Z,14.98
2023-05-22T04:13:17.147Z,14.95
2023-05-22T04:15:46.989Z,15.00
2023-05-22T04:18:14.476Z,14.95
2023-05-22T04:20:41.955Z,15.02
2023-05-22T04:23:08.814Z,15.00
2023-05-22T04:25:36.642Z,15.01
2023-05-22T04:28:04.342Z,15.04
2023-05-22T04:30:34.610Z,15.00
2023-05-22T04:33:02.066Z,15.01
2023-05-22T04:35:29.770Z,15.05
2023-05-22T04:37:57.374Z,15.02
2023-05-22T04:40:24.240Z,15.01
2023-05-22T04:42:54.448Z,15.05
2023-05-22T04:45:25.564Z,15.04
2023-05-22T04:47:53.374Z,15.08
2023-05-22T04:50:20.825Z,15.05
2023-05-22T04:52:48.598Z,15.09
2023-05-22T04:55:15.807Z,15.10
2023-05-22T04:57:44.815Z,15.11
2023-05-22T05:00:17.315Z,15.21
2023-05-22T05:02:44.280Z,15.20
2023-05-22T05:05:12.065Z,15.19
2023-05-22T05:07:39.981Z,15.23
2023-05-22T05:10:07.707Z,15.26
2023-05-22T05:12:34.527Z,15.26
2023-05-22T05:15:01.491Z,15.28
2023-05-22T05:17:29.071Z,15.35
2023-05-22T05:19:55.993Z,15.40
2023-05-22T05:22:23.124Z,15.37
2023-05-22T05:24:49.926Z,15.51
2023-05-22T05:27:16.687Z,15.56
2023-05-22T05:29:43.315Z,15.64
2023-05-22T05:32:11.676Z,15.73
2023-05-22T05:34:38.459Z,15.82
2023-05-22T05:37:05.467Z,15.89
2023-05-22T05:39:32.169Z,16.03
2023-05-22T05:41:58.943Z,16.09
2023-05-22T05:44:25.717Z,16.18
2023-05-22T05:46:52.730Z,16.24
2023-05-22T05:49:19.978Z,16.29
2023-05-22T05:51:46.661Z,16.33
2023-05-22T05:54:13.714Z,16.40
2023-05-22T05:56:40.373Z,16.46
2023-05-22T05:59:07.433Z,16.49
2023-05-22T06:01:35.458Z,16.52
2023-05-22T06:04:03.592Z,16.47
2023-05-22T06:06:36.490Z,16.45
2023-05-22T06:09:05.709Z,16.52
2023-05-22T06:11:33.266Z,16.57
2023-05-22T06:14:01.154Z,16.61
2023-05-22T06:16:28.368Z,16.61
2023-05-22T06:18:57.278Z,16.62
2023-05-22T06:21:24.611Z,16.71
2023-05-22T06:23:51.779Z,16.81
2023-05-22T06:26:18.521Z,16.86
2023-05-22T06:28:45.281Z,16.91
2023-05-22T06:31:11.836Z,16.95
2023-05-22T06:33:40.851Z,17.00
2023-05-22T06:36:09.001Z,17.02
2023-05-22T06:38:38.101Z,17.08
2023-05-22T06:41:05.544Z,17.17
2023-05-22T06:43:32.489Z,17.22
2023-05-22T06:45:59.170Z,17.18
2023-05-22T06:48:25.782Z,17.24
2023-05-22T06:50:52.359Z,17.34
2023-05-22T06:53:18.996Z,17.37
2023-05-22T06:55:45.656Z,17.44
2023-05-22T06:58:12.279Z,17.48
2023-05-22T07:00:39.199Z,17.51
2023-05-22T07:03:07.025Z,17.55
2023-05-22T07:05:33.765Z,17.51
2023-05-22T07:08:00.415Z,17.60
2023-05-22T07:10:27.900Z,17.75
2023-05-22T07:12:54.815Z,17.88
2023-05-22T07:15:21.474Z,17.91
2023-05-22T07:17:49.507Z,17.96
2023-05-22T07:20:16.919Z,18.03
2023-05-22T07:22:43.491Z,18.03
2023-05-22T07:25:10.424Z,18.13
2023-05-22T07:27:37.015Z,18.24
2023-05-22T07:30:04.408Z,18.24
2023-05-22T07:32:35.313Z,18.33
2023-05-22T07:35:05.925Z,18.37
2023-05-22T07:37:33.599Z,18.41
2023-05-22T07:40:01.660Z,18.45
2023-05-22T07:42:29.532Z,18.44
2023-05-22T07:44:57.729Z,18.39
2023-05-22T07:47:24.579Z,18.45
2023-05-22T07:49:52.347Z,18.51
2023-05-22T07:52:19.432Z,18.65
2023-05-22T07:54:48.774Z,18.69
2023-05-22T07:57:16.819Z,18.82
2023-05-22T07:59:45.586Z,18.94
2023-05-22T08:02:14.486Z,19.14
2023-05-22T08:04:44.287Z,19.18
2023-05-22T08:07:12.915Z,19.22
2023-05-22T08:09:47.600Z,19.35
2023-05-22T08:12:15.753Z,19.39
2023-05-22T08:14:45.713Z,19.40
2023-05-22T08:17:12.646Z,19.55
2023-05-22T08:19:43.159Z,19.52
2023-05-22T08:22:10.958Z,19.58
2023-05-22T08:24:38.050Z,19.62
2023-05-22T08:27:07.466Z,19.68
2023-05-22T08:29:36.415Z,19.62
2023-05-22T08:32:04.523Z,19.61
2023-05-22T08:34:33.141Z,19.66
2023-05-22T08:37:00.971Z,19.88
2023-05-22T08:39:29.305Z,19.87
2023-05-22T08:41:56.532Z,19.98
2023-05-22T08:44:25.792Z,20.15
2023-05-22T08:46:52.766Z,20.17
2023-05-22T08:49:21.832Z,20.34
2023-05-22T08:51:56.296Z,20.34
2023-05-22T08:54:28.816Z,20.28
2023-05-22T08:56:57.322Z,20.31
2023-05-22T08:59:25.070Z,20.32
2023-05-22T09:01:54.010Z,20.45
2023-05-22T09:04:23.962Z,20.38
2023-05-22T09:06:52.280Z,20.45
2023-05-22T09:09:19.207Z,20.47
2023-05-22T09:11:46.285Z,20.50
2023-05-22T09:14:16.099Z,20.48
2023-05-22T09:16:53.024Z,20.53
2023-05-22T09:19:21.516Z,20.63
2023-05-22T09:21:48.322Z,20.72
2023-05-22T09:24:15.189Z,20.88
2023-05-22T09:26:42.230Z,21.00
2023-05-22T09:29:12.561Z,21.01
2023-05-22T09:31:43.831Z,21.11
2023-05-22T09:34:14.423Z,21.13
2023-05-22T09:36:42.832Z,21.21
2023-05-22T09:39:09.781Z,21.33
2023-05-22T09:41:40.468Z,21.48
2023-05-22T09:44:14.125Z,21.46
2023-05-22T09:46:50.082Z,21.41
2023-05-22T09:49:17.577Z,21.56
2023-05-22T09:51:49.609Z,21.45
2023-05-22T09:54:20.446Z,21.46
2023-05-22T09:56:59.068Z,21.52
2023-05-22T09:59:30.533Z,21.53
2023-05-22T10:01:58.608Z,21.46
2023-05-22T10:04:33.270Z,21.33
2023-05-22T10:07:04.386Z,21.49
2023-05-22T10:09:40.988Z,21.63
2023-05-22T10:12:15.852Z,21.81
2023-05-22T10:14:44.158Z,22.00
2023-05-22T10:17:16.838Z,21.82
2023-05-22T10:19:50.915Z,21.93
2023-05-22T10:22:27.457Z,21.84
2023-05-22T10:25:05.150Z,21.78
2023-05-22T10:27:33.430Z,21.61
2023-05-22T10:30:29.334Z,21.51
2023-05-22T10:33:20.347Z,21.57
2023-05-22T10:36:04.819Z,21.66
2023-05-22T10:39:12.261Z,21.89
2023-05-22T10:41:40.620Z,21.96
2023-05-22T10:44:14.483Z,22.27
2023-05-22T10:47:14.104Z,22.12
2023-05-22T10:49:47.436Z,22.15
2023-05-22T10:52:42.954Z,22.10
2023-05-22T10:55:18.316Z,22.06
2023-05-22T10:57:52.542Z,22.12
2023-05-22T11:00:27.827Z,21.90
2023-05-22T11:03:17.079Z,21.91
2023-05-22T11:05:53.477Z,21.91
2023-05-22T11:08:27.555Z,21.99
2023-05-22T11:11:01.388Z,21.87
2023-05-22T11:13:29.471Z,21.92
2023-05-22T11:15:58.437Z,22.14
2023-05-22T11:18:31.698Z,22.20
2023-05-22T11:21:00.071Z,22.37
2023-05-22T11:23:30.878Z,22.57
2023-05-22T11:26:23.254Z,22.52
2023-05-22T11:28:53.865Z,22.63
2023-05-22T11:31:24.374Z,22.86
2023-05-22T11:33:58.703Z,23.09
2023-05-22T11:36:27.886Z,23.19
2023-05-22T11:39:01.556Z,23.34
2023-05-22T11:41:34.065Z,23.29
2023-05-22T11:44:02.549Z,23.50
2023-05-22T11:46:30.813Z,23.55
2023-05-22T11:48:59.181Z,23.50
2023-05-22T11:51:29.228Z,23.42
2023-05-22T11:53:57.379Z,23.36
2023-05-22T11:56:27.164Z,23.42
2023-05-22T11:58:53.875Z,23.60
2023-05-22T12:01:22.087Z,23.71
2023-05-22T12:03:55.635Z,23.78
2023-05-22T12:06:22.609Z,23.93
2023-05-22T12:08:51.161Z,23.96
2023-05-22T12:11:18.101Z,24.19
2023-05-22T12:13:45.651Z,24.26
2023-05-22T12:16:20.249Z,24.17
2023-05-22T12:18:49.186Z,24.26
2023-05-22T12:21:20.302Z,24.40
2023-05-22T12:23:51.227Z,24.38
2023-05-22T12:26:19.570Z,24.36
2023-05-22T12:28:52.223Z,24.37
2023-05-22T12:31:23.383Z,24.46
2023-05-22T12:33:56.064Z,24.44
2023-05-22T12:36:46.653Z,24.51
2023-05-22T12:39:18.701Z,24.45
2023-05-22T12:41:53.342Z,24.45
2023-05-22T12:44:26.554Z,24.53
2023-05-22T12:46:56.310Z,24.41
2023-05-22T12:49:23.970Z,24.36
2023-05-22T12:51:52.158Z,24.39
2023-05-22T12:54:20.401Z,24.38
2023-05-22T12:56:47.285Z,24.26
2023-05-22T12:59:14.002Z,24.38
2023-05-22T13:01:40.836Z,24.31
2023-05-22T13:04:11.321Z,24.25
2023-05-22T13:06:39.551Z,24.29
2023-05-22T13:09:07.488Z,24.34
2023-05-22T13:11:36.939Z,24.27
2023-05-22T13:14:03.764Z,24.42
2023-05-22T13:16:31.614Z,24.66
2023-05-22T13:18:58.294Z,24.69
2023-05-22T13:21:26.635Z,24.73
2023-05-22T13:23:53.750Z,24.81
2023-05-22T13:26:21.359Z,24.89
2023-05-22T13:28:48.044Z,25.00
2023-05-22T13:31:14.762Z,24.97
2023-05-22T13:33:42.757Z,24.99
2023-05-22T13:36:09.562Z,25.17
2023-05-22T13:38:36.537Z,25.08
2023-05-22T13:41:03.339Z,25.10
2023-05-22T13:43:30.004Z,25.11
2023-05-22T13:45:56.923Z,25.02
2023-05-22T13:48:23.737Z,24.94
2023-05-22T13:50:53.479Z,24.86
2023-05-22T13:53:20.074Z,24.96
2023-05-22T13:55:46.784Z,24.79
2023-05-22T13:58:13.553Z,24.83
2023-05-22T14:00:40.134Z,24.90
2023-05-22T14:03:06.924Z,25.03
2023-05-22T14:05:34.779Z,25.13
2023-05-22T14:08:01.425Z,24.99
2023-05-22T14:10:29.397Z,25.10
2023-05-22T14:12:58.048Z,25.05
2023-05-22T14:15:24.762Z,25.03
2023-05-22T14:17:53.851Z,25.11
2023-05-22T14:23:05.345Z,25.23
2023-05-22T14:25:39.825Z,25.32
2023-05-22T14:28:06.715Z,25.18
2023-05-22T14:30:34.692Z,25.15
2023-05-22T14:33:01.779Z,25.06
2023-05-22T14:35:29.840Z,24.93
2023-05-22T14:37:56.516Z,24.94
2023-05-22T14:40:23.322Z,25.00
2023-05-22T14:42:51.318Z,25.04
2023-05-22T14:45:20.364Z,24.90
2023-05-22T14:47:50.028Z,24.87
2023-05-22T14:50:20.361Z,24.83
2023-05-22T14:52:49.052Z,24.85
2023-05-22T14:55:16.753Z,24.83
2023-05-22T14:57:45.084Z,24.75
2023-05-22T15:00:12.651Z,24.81
2023-05-22T15:02:39.735Z,24.81
2023-05-22T15:05:07.394Z,24.70
2023-05-22T15:10:05.424Z,24.65
2023-05-22T15:12:32.681Z,24.71
2023-05-22T15:14:59.335Z,24.61
2023-05-22T15:17:26.161Z,24.43
2023-05-22T15:19:52.860Z,24.43
2023-05-22T15:22:20.224Z,24.23
2023-05-22T15:24:48.347Z,24.24
2023-05-22T15:27:15.166Z,24.03
2023-05-22T15:29:43.348Z,23.87
2023-05-22T15:32:10.193Z,23.96
2023-05-22T15:34:37.009Z,23.99
2023-05-22T15:37:03.669Z,23.78
2023-05-22T15:39:30.610Z,23.73
2023-05-22T15:42:06.477Z,23.83
2023-05-22T15:44:33.890Z,23.83
2023-05-22T15:47:03.274Z,23.86
2023-05-22T15:49:31.233Z,23.75
2023-05-22T15:52:01.045Z,23.83
2023-05-22T15:54:27.723Z,23.65
2023-05-22T15:56:54.412Z,23.60
2023-05-22T15:59:22.160Z,23.50
2023-05-22T16:01:48.916Z,23.49
2023-05-22T16:04:17.081Z,23.53
2023-05-22T16:06:43.960Z,23.53
2023-05-22T16:09:13.593Z,23.62
2023-05-22T16:11:44.096Z,23.60
2023-05-22T16:14:12.348Z,23.47
2023-05-22T16:16:44.164Z,23.33
2023-05-22T16:19:17.725Z,23.20
2023-05-22T16:21:49.854Z,23.14
2023-05-22T16:24:19.586Z,23.18
2023-05-22T16:26:53.861Z,23.13
2023-05-22T16:29:22.270Z,23.21
2023-05-22T16:31:53.481Z,23.15
2023-05-22T16:34:21.676Z,23.13
2023-05-22T16:36:51.388Z,22.99
2023-05-22T16:39:20.792Z,22.84
2023-05-22T16:41:48.781Z,22.81
2023-05-22T16:44:18.530Z,22.78
2023-05-22T16:46:53.565Z,22.66
2023-05-22T16:49:21.061Z,22.61
2023-05-22T16:51:47.728Z,22.57
2023-05-22T16:54:14.303Z,22.54
2023-05-22T16:56:40.944Z,22.53
2023-05-22T16:59:07.658Z,22.51
2023-05-22T17:01:34.334Z,22.43
2023-05-22T17:04:00.986Z,22.41
2023-05-22T17:06:27.970Z,22.38
2023-05-22T17:08:54.568Z,22.35
2023-05-22T17:11:21.176Z,22.27
2023-05-22T17:13:47.900Z,22.18
2023-05-22T17:16:14.614Z,22.00
2023-05-22T17:18:41.407Z,21.90
2023-05-22T17:21:09.375Z,21.92
2023-05-22T17:23:37.418Z,21.90
2023-05-22T17:26:04.673Z,21.84
2023-05-22T17:28:31.676Z,21.83
2023-05-22T17:30:58.332Z,21.69
2023-05-22T17:33:25.469Z,21.72
2023-05-22T17:35:52.820Z,21.72
2023-05-22T17:38:19.489Z,21.67
2023-05-22T17:40:46.513Z,21.62
2023-05-22T17:43:13.846Z,21.57
2023-05-22T17:45:40.795Z,21.51
2023-05-22T17:48:08.003Z,21.51
2023-05-22T17:50:34.852Z,21.48
2023-05-22T17:53:01.577Z,21.34
2023-05-22T17:55:28.329Z,21.26
2023-05-22T17:57:55.068Z,21.25
2023-05-22T18:00:21.817Z,21.14
2023-05-22T18:02:50.782Z,21.14
2023-05-22T18:05:17.576Z,21.03
2023-05-22T18:07:44.163Z,21.06
2023-05-22T18:10:11.242Z,20.99
2023-05-22T18:15:09.685Z,20.94
2023-05-22T18:17:36.440Z,20.87
2023-05-22T18:20:07.688Z,20.82
2023-05-22T18:22:35.923Z,20.78
2023-05-22T18:25:03.185Z,20.70
2023-05-22T18:27:29.941Z,20.73
2023-05-22T18:29:56.745Z,20.60
2023-05-22T18:32:23.455Z,20.55
2023-05-22T18:34:54.863Z,20.55
2023-05-22T18:37:21.975Z,20.50
2023-05-22T18:39:51.255Z,20.38
2023-05-22T18:45:01.690Z,20.27
2023-05-22T18:47:28.403Z,20.22
2023-05-22T18:49:57.217Z,20.24
2023-05-22T18:52:26.432Z,20.22
2023-05-22T18:54:52.987Z,20.19
2023-05-22T18:57:22.553Z,20.09
2023-05-22T18:59:49.662Z,20.05
2023-05-22T19:02:17.106Z,19.98
2023-05-22T19:04:47.155Z,19.93
2023-05-22T19:07:14.016Z,19.88
2023-05-22T19:09:40.712Z,19.84
2023-05-22T19:12:07.422Z,19.75
2023-05-22T19:14:34.032Z,19.69
2023-05-22T19:17:00.716Z,19.61
2023-05-22T19:19:27.782Z,19.56
2023-05-22T19:21:57.323Z,19.49
2023-05-22T19:24:23.924Z,19.46
2023-05-22T19:26:50.621Z,19.40
2023-05-22T19:29:20.176Z,19.35
2023-05-22T19:31:46.869Z,19.32
2023-05-22T19:34:13.444Z,19.28
2023-05-22T19:36:40.001Z,19.25
2023-05-22T19:39:06.808Z,19.20
2023-05-22T19:41:33.408Z,19.17
2023-05-22T19:44:20.273Z,19.15
2023-05-22T19:46:46.984Z,19.15
2023-05-22T19:49:13.801Z,19.12
2023-05-22T19:51:46.007Z,19.10
2023-05-22T19:54:16.899Z,19.05
2023-05-22T19:56:43.453Z,19.04
2023-05-22T19:59:09.994Z,19.05
2023-05-22T20:01:36.590Z,19.06
2023-05-22T20:04:03.399Z,19.05
2023-05-22T20:06:33.557Z,19.06
2023-05-22T20:09:01.824Z,19.08
2023-05-22T20:11:29.588Z,19.07
2023-05-22T20:13:56.398Z,19.07
2023-05-22T20:16:28.421Z,19.08
2023-05-22T20:18:56.403Z,19.05
2023-05-22T20:21:23.042Z,19.00
2023-05-22T20:23:49.635Z,19.04
2023-05-22T20:26:16.268Z,19.02
2023-05-22T20:28:45.747Z,19.03
2023-05-22T20:31:12.319Z,19.02
2023-05-22T20:33:38.876Z,19.00
2023-05-22T20:36:08.764Z,19.02
2023-05-22T20:38:35.325Z,19.00
2023-05-22T20:41:02.722Z,18.97
2023-05-22T20:43:30.880Z,18.89
2023-05-22T20:45:57.642Z,18.86
2023-05-22T20:48:24.296Z,18.79
2023-05-22T20:50:51.058Z,18.79
2023-05-22T20:53:18.345Z,18.71
2023-05-22T20:55:44.995Z,18.68
2023-05-22T20:58:14.318Z,18.62
2023-05-22T21:00:42.217Z,18.54
2023-05-22T21:03:08.990Z,18.54
2023-05-22T21:05:35.884Z,18.47
2023-05-22T21:08:02.491Z,18.38
2023-05-22T21:10:29.096Z,18.34
2023-05-22T21:12:59.011Z,18.27
2023-05-22T21:15:25.653Z,18.25
2023-05-22T21:17:52.337Z,18.23
2023-05-22T21:20:19.013Z,18.17
2023-05-22T21:22:48.180Z,18.14
2023-05-22T21:25:14.828Z,18.06
2023-05-22T21:27:41.471Z,18.00
2023-05-22T21:30:08.682Z,18.01
2023-05-22T21:32:35.337Z,17.97
2023-05-22T21:35:01.989Z,17.91
2023-05-22T21:37:28.652Z,17.86
2023-05-22T21:39:55.218Z,17.79
2023-05-22T21:42:22.310Z,17.72
2023-05-22T21:44:48.932Z,17.67
2023-05-22T21:47:15.571Z,17.65
2023-05-22T21:49:42.235Z,17.54
2023-05-22T21:52:08.971Z,17.54
2023-05-22T21:54:35.676Z,17.45
2023-05-22T21:57:03.526Z,17.42
2023-05-22T21:59:30.269Z,17.35
2023-05-22T22:01:57.054Z,17.35
2023-05-22T22:04:23.773Z,17.31
2023-05-22T22:06:50.512Z,17.25
2023-05-22T22:09:17.233Z,17.21
2023-05-22T22:11:43.793Z,17.14
2023-05-22T22:14:10.420Z,17.05
2023-05-22T22:16:37.876Z,17.07
2023-05-22T22:19:05.120Z,17.02
2023-05-22T22:21:33.583Z,17.01
2023-05-22T22:27:28.783Z,16.84
2023-05-22T22:29:55.527Z,16.84
2023-05-22T22:32:22.165Z,16.81
2023-05-22T22:34:53.982Z,16.75
2023-05-22T22:37:21.799Z,16.72
2023-05-22T22:39:48.467Z,16.74
2023-05-22T22:42:15.080Z,16.70
2023-05-22T22:44:41.798Z,16.67
2023-05-22T22:47:11.271Z,16.62
2023-05-22T22:49:39.351Z,16.57
2023-05-22T22:52:06.020Z,16.60
2023-05-22T22:54:32.840Z,16.53
2023-05-22T22:56:59.444Z,16.53
2023-05-22T22:59:26.126Z,16.50
2023-05-22T23:01:52.817Z,16.48
2023-05-22T23:04:19.786Z,16.47
2023-05-22T23:06:47.843Z,16.42
2023-05-22T23:09:14.841Z,16.39
2023-05-22T23:11:42.741Z,16.37
2023-05-22T23:14:10.041Z,16.35
2023-05-22T23:16:38.127Z,16.32
2023-05-22T23:19:05.440Z,16.25
2023-05-22T23:21:33.672Z,16.17
2023-05-22T23:24:01.586Z,16.17
2023-05-22T23:26:28.573Z,16.15
2023-05-22T23:28:55.160Z,16.05
2023-05-22T23:31:26.316Z,16.02
2023-05-22T23:33:53.175Z,15.99
2023-05-22T23:36:19.820Z,15.96
2023-05-22T23:38:47.108Z,15.93
2023-05-22T23:41:18.841Z,15.86
2023-05-22T23:43:46.500Z,15.83
2023-05-22T23:46:15.968Z,15.77
2023-05-22T23:48:42.814Z,15.72
2023-05-22T23:51:10.117Z,15.73
2023-05-22T23:53:37.035Z,15.67
2023-05-22T23:56:04.481Z,15.64
2023-05-22T23:58:32.302Z,15.59
